Selçuk Efes Airport

LTFB · İzmir, 土耳其

罗盘
风向 的 风向 280° Selçuk Efes Airport 9/27
风: 4 kt, 2 beaufort

4 kt

1 kt
改变
0 ft 1.000 2.000 3.000 4.000 5.000
Cloud Cloud Cloud Cloud Cloud Cloud
BKN 3.000
METAR LTFB 231450Z 28004KT 9999 BKN030 17/11 Q1020

METAR Selçuk Efes Airport - LTFB

Selçuk Efes Airport是,土耳其中的小机场。 该机场位于纬度37,95070和经度27,32900。 该机场有一条跑道: 9/27. 本场的ICAO机场代码为LTFB。 机场在Istanbul FIR中。

该航空气象观测是针对Selçuk Efes Airport在2024年2月23日 17:50, 当地时间进行的。

机场观察

风向为280°,速度为4 kt。

可见度为10 km 或者更多。

有碎云在3.000 ft的高度。 破损或更高的上限为3.000 ft。

温度和风寒是17 °C。 露点为11 °C,相对湿度为68%。 海平面上的气压为1020 hPa (QNH)。

白天

今天,太阳从07:51升起,在18:57降落。 这适用于Selçuk Efes Airport,世界夏令时可能有所不同。 当地时间与世界标准时间之间的时差为+3 小时。 当前,没有夏令时有效。

公司介绍

在这个机场,你可以找到跳伞中心。 本场上唯一已知的公司是Skydive EFES。

体会

到Vliegles.nl去找飞行课程,跳伞和其他飞行体验。 浏览页面,了解Selçuk Efes Airport附近所有可用的活动。 你也可以使用搜索功能来寻找你所在地附近的特定飞行课程、跳伞或其他飞行体验。

跑道

Id 标题 侧风 逆风 侧风 %
9/27 089°-269° 4 kt 19 %

逆风成分最大的方向会被突出显示,并用于横风计算。 这并不一定意味着这个方向在使用。

乌云

3.000 ft BKN 碎云

温度 & 天气

温度 17 °C
露点 11 °C
相对湿度 68%
Kp-index 0 (0-9)

白天

日出
07:51
中午
13:24
日落
18:57 (5m)

小工具

你想在你的网站上有一个关于Selçuk Efes Airport的当前航空天气(METAR)的小部件吗?

显示HTML代码
?>